sensor_id;sensor_type;location;lat;lon;timestamp;pressure;altitude;pressure_sealevel;temperature;humidity
60719;BME280;46567;51.660;5.824;2023-04-27T00:00:49;102000.0;;;6.0;70.0
60719;BME280;46567;51.660;5.824;2023-04-27T00:05:49;102010.0;;;5.9;70.0
60719;BME280;46567;51.660;5.824;2023-04-27T00:10:49;102010.0;;;5.8;70.0
60719;BME280;46567;51.660;5.824;2023-04-27T00:15:49;102020.0;;;5.8;70.0
60719;BME280;46567;51.660;5.824;2023-04-27T00:20:49;102020.0;;;5.6;70.0
60719;BME280;46567;51.660;5.824;2023-04-27T00:25:49;102020.0;;;5.6;70.5
60719;BME280;46567;51.660;5.824;2023-04-27T00:30:49;102030.0;;;5.5;70.5
60719;BME280;46567;51.660;5.824;2023-04-27T00:35:49;102020.0;;;5.4;70.5
60719;BME280;46567;51.660;5.824;2023-04-27T00:40:49;102030.0;;;5.3;70.5
60719;BME280;46567;51.660;5.824;2023-04-27T00:45:49;102020.0;;;5.2;71.0
60719;BME280;46567;51.660;5.824;2023-04-27T00:50:49;102020.0;;;5.2;71.0
60719;BME280;46567;51.660;5.824;2023-04-27T00:55:49;102020.0;;;5.1;71.0
60719;BME280;46567;51.660;5.824;2023-04-27T01:00:49;102030.0;;;5.0;71.5
60719;BME280;46567;51.660;5.824;2023-04-27T01:05:49;102020.0;;;4.9;71.5
60719;BME280;46567;51.660;5.824;2023-04-27T01:10:49;102010.0;;;4.8;72.0
60719;BME280;46567;51.660;5.824;2023-04-27T01:15:49;102010.0;;;4.8;72.0
60719;BME280;46567;51.660;5.824;2023-04-27T01:20:49;102010.0;;;4.7;72.5
60719;BME280;46567;51.660;5.824;2023-04-27T01:25:49;102010.0;;;4.7;72.5
60719;BME280;46567;51.660;5.824;2023-04-27T01:30:49;102020.0;;;4.6;72.5
60719;BME280;46567;51.660;5.824;2023-04-27T01:35:49;102030.0;;;4.6;73.0
60719;BME280;46567;51.660;5.824;2023-04-27T01:40:49;102020.0;;;4.5;73.0
60719;BME280;46567;51.660;5.824;2023-04-27T01:45:49;102020.0;;;4.4;73.0
60719;BME280;46567;51.660;5.824;2023-04-27T01:50:49;102010.0;;;4.4;73.0
60719;BME280;46567;51.660;5.824;2023-04-27T01:55:49;102020.0;;;4.3;73.5
60719;BME280;46567;51.660;5.824;2023-04-27T02:00:49;102010.0;;;4.3;73.5
60719;BME280;46567;51.660;5.824;2023-04-27T02:05:49;102000.0;;;4.2;73.5
60719;BME280;46567;51.660;5.824;2023-04-27T02:10:49;102020.0;;;4.1;73.5
60719;BME280;46567;51.660;5.824;2023-04-27T02:15:49;102010.0;;;4.1;74.0
60719;BME280;46567;51.660;5.824;2023-04-27T02:20:49;101990.0;;;4.0;74.0
60719;BME280;46567;51.660;5.824;2023-04-27T02:25:49;101990.0;;;4.0;74.0
60719;BME280;46567;51.660;5.824;2023-04-27T02:30:49;101990.0;;;3.9;74.5
60719;BME280;46567;51.660;5.824;2023-04-27T02:35:49;101990.0;;;3.9;74.5
60719;BME280;46567;51.660;5.824;2023-04-27T02:40:51;102000.0;;;3.9;74.5
60719;BME280;46567;51.660;5.824;2023-04-27T02:45:49;101990.0;;;3.9;75.0
60719;BME280;46567;51.660;5.824;2023-04-27T02:50:49;101980.0;;;3.9;75.0
60719;BME280;46567;51.660;5.824;2023-04-27T02:55:49;101980.0;;;3.9;75.0
60719;BME280;46567;51.660;5.824;2023-04-27T03:00:52;101990.0;;;3.8;75.0
60719;BME280;46567;51.660;5.824;2023-04-27T03:05:49;102000.0;;;3.8;75.0
60719;BME280;46567;51.660;5.824;2023-04-27T03:10:49;101990.0;;;3.8;75.0
60719;BME280;46567;51.660;5.824;2023-04-27T03:15:49;101990.0;;;3.7;75.5
60719;BME280;46567;51.660;5.824;2023-04-27T03:20:49;101990.0;;;3.7;75.5
60719;BME280;46567;51.660;5.824;2023-04-27T03:25:49;101990.0;;;3.7;75.5
60719;BME280;46567;51.660;5.824;2023-04-27T03:30:49;101990.0;;;3.6;75.5
60719;BME280;46567;51.660;5.824;2023-04-27T03:35:53;101990.0;;;3.6;76.0
60719;BME280;46567;51.660;5.824;2023-04-27T03:40:49;102000.0;;;3.5;76.0
60719;BME280;46567;51.660;5.824;2023-04-27T03:45:49;102010.0;;;3.5;76.0
60719;BME280;46567;51.660;5.824;2023-04-27T03:50:49;102010.0;;;3.4;76.0
60719;BME280;46567;51.660;5.824;2023-04-27T03:55:49;102010.0;;;3.4;76.0
60719;BME280;46567;51.660;5.824;2023-04-27T04:00:49;102020.0;;;3.4;76.5
60719;BME280;46567;51.660;5.824;2023-04-27T04:05:49;102020.0;;;3.4;76.5
60719;BME280;46567;51.660;5.824;2023-04-27T04:10:49;102020.0;;;3.4;76.5
60719;BME280;46567;51.660;5.824;2023-04-27T04:15:49;102030.0;;;3.4;76.5
60719;BME280;46567;51.660;5.824;2023-04-27T04:20:49;102020.0;;;3.4;76.5
60719;BME280;46567;51.660;5.824;2023-04-27T04:25:49;102030.0;;;3.4;76.5
60719;BME280;46567;51.660;5.824;2023-04-27T04:30:49;102030.0;;;3.4;76.5
60719;BME280;46567;51.660;5.824;2023-04-27T04:35:49;102030.0;;;3.4;77.0
60719;BME280;46567;51.660;5.824;2023-04-27T04:40:49;102040.0;;;3.4;77.0
60719;BME280;46567;51.660;5.824;2023-04-27T04:50:49;102050.0;;;3.5;77.0
60719;BME280;46567;51.660;5.824;2023-04-27T04:55:49;102050.0;;;3.5;77.0
60719;BME280;46567;51.660;5.824;2023-04-27T05:00:49;102050.0;;;3.6;77.0
60719;BME280;46567;51.660;5.824;2023-04-27T05:05:49;102050.0;;;3.6;77.5
60719;BME280;46567;51.660;5.824;2023-04-27T05:10:49;102060.0;;;3.7;77.5
60719;BME280;46567;51.660;5.824;2023-04-27T05:15:49;102060.0;;;3.7;77.5
60719;BME280;46567;51.660;5.824;2023-04-27T05:20:49;102060.0;;;3.8;78.0
60719;BME280;46567;51.660;5.824;2023-04-27T05:25:49;102050.0;;;3.9;78.0
60719;BME280;46567;51.660;5.824;2023-04-27T05:30:49;102060.0;;;4.0;79.0
60719;BME280;46567;51.660;5.824;2023-04-27T05:35:49;102050.0;;;4.1;79.5
60719;BME280;46567;51.660;5.824;2023-04-27T05:40:52;102050.0;;;4.3;79.5
60719;BME280;46567;51.660;5.824;2023-04-27T05:45:49;102060.0;;;4.4;79.5
60719;BME280;46567;51.660;5.824;2023-04-27T05:50:57;102050.0;;;4.5;80.0
60719;BME280;46567;51.660;5.824;2023-04-27T05:55:49;102050.0;;;4.7;80.0
60719;BME280;46567;51.660;5.824;2023-04-27T06:00:49;102060.0;;;4.9;80.0
60719;BME280;46567;51.660;5.824;2023-04-27T06:05:52;102060.0;;;5.1;80.5
60719;BME280;46567;51.660;5.824;2023-04-27T06:10:49;102050.0;;;5.3;80.0
60719;BME280;46567;51.660;5.824;2023-04-27T06:15:49;102060.0;;;5.5;80.5
60719;BME280;46567;51.660;5.824;2023-04-27T06:20:49;102050.0;;;5.7;80.5
60719;BME280;46567;51.660;5.824;2023-04-27T06:25:49;102050.0;;;6.0;80.5
60719;BME280;46567;51.660;5.824;2023-04-27T06:30:49;102050.0;;;6.2;80.0
60719;BME280;46567;51.660;5.824;2023-04-27T06:35:49;102050.0;;;6.5;79.5
60719;BME280;46567;51.660;5.824;2023-04-27T06:40:50;102050.0;;;6.9;79.0
60719;BME280;46567;51.660;5.824;2023-04-27T06:45:49;102050.0;;;7.3;77.0
60719;BME280;46567;51.660;5.824;2023-04-27T06:50:49;102050.0;;;7.8;77.0
60719;BME280;46567;51.660;5.824;2023-04-27T06:55:49;102050.0;;;8.4;72.5
60719;BME280;46567;51.660;5.824;2023-04-27T07:00:49;102040.0;;;8.7;68.0
60719;BME280;46567;51.660;5.824;2023-04-27T07:05:49;102040.0;;;9.1;67.0
60719;BME280;46567;51.660;5.824;2023-04-27T07:10:49;102050.0;;;9.3;65.0
60719;BME280;46567;51.660;5.824;2023-04-27T07:15:53;102040.0;;;9.6;64.5
60719;BME280;46567;51.660;5.824;2023-04-27T07:20:49;102040.0;;;10.0;63.5
60719;BME280;46567;51.660;5.824;2023-04-27T07:25:49;102030.0;;;10.3;62.5
60719;BME280;46567;51.660;5.824;2023-04-27T07:30:49;102040.0;;;10.7;62.0
60719;BME280;46567;51.660;5.824;2023-04-27T07:35:49;102040.0;;;10.8;58.0
60719;BME280;46567;51.660;5.824;2023-04-27T07:40:49;102040.0;;;10.8;56.5
60719;BME280;46567;51.660;5.824;2023-04-27T07:45:49;102040.0;;;10.8;58.5
60719;BME280;46567;51.660;5.824;2023-04-27T07:50:49;102040.0;;;10.8;58.5
60719;BME280;46567;51.660;5.824;2023-04-27T07:55:49;102040.0;;;10.9;56.5
60719;BME280;46567;51.660;5.824;2023-04-27T08:00:49;102040.0;;;11.2;58.0
60719;BME280;46567;51.660;5.824;2023-04-27T08:05:49;102030.0;;;11.5;57.5
60719;BME280;46567;51.660;5.824;2023-04-27T08:10:49;102030.0;;;11.7;56.5
60719;BME280;46567;51.660;5.824;2023-04-27T08:15:49;102030.0;;;11.7;53.0
60719;BME280;46567;51.660;5.824;2023-04-27T08:20:49;102040.0;;;11.6;53.0
60719;BME280;46567;51.660;5.824;2023-04-27T08:25:49;102040.0;;;11.7;54.5
60719;BME280;46567;51.660;5.824;2023-04-27T08:30:49;102040.0;;;11.8;52.0
60719;BME280;46567;51.660;5.824;2023-04-27T08:35:49;102050.0;;;11.9;53.5
60719;BME280;46567;51.660;5.824;2023-04-27T08:40:49;102040.0;;;12.2;52.0
60719;BME280;46567;51.660;5.824;2023-04-27T08:45:49;102040.0;;;12.3;50.5
60719;BME280;46567;51.660;5.824;2023-04-27T08:50:49;102020.0;;;12.5;52.5
60719;BME280;46567;51.660;5.824;2023-04-27T08:55:49;102020.0;;;12.8;52.0
60719;BME280;46567;51.660;5.824;2023-04-27T09:00:49;102010.0;;;13.0;49.5
60719;BME280;46567;51.660;5.824;2023-04-27T09:05:49;102000.0;;;13.1;51.0
60719;BME280;46567;51.660;5.824;2023-04-27T09:10:50;102010.0;;;13.0;46.5
60719;BME280;46567;51.660;5.824;2023-04-27T09:15:50;102020.0;;;13.0;48.0
60719;BME280;46567;51.660;5.824;2023-04-27T09:20:50;102010.0;;;13.3;49.5
60719;BME280;46567;51.660;5.824;2023-04-27T09:25:49;102020.0;;;13.5;47.0
60719;BME280;46567;51.660;5.824;2023-04-27T09:30:51;102010.0;;;13.5;46.5
60719;BME280;46567;51.660;5.824;2023-04-27T09:40:51;102020.0;;;13.8;46.0
60719;BME280;46567;51.660;5.824;2023-04-27T09:45:50;102000.0;;;13.8;44.0
60719;BME280;46567;51.660;5.824;2023-04-27T09:50:50;102000.0;;;13.8;44.0
60719;BME280;46567;51.660;5.824;2023-04-27T09:55:58;101990.0;;;13.9;46.5
60719;BME280;46567;51.660;5.824;2023-04-27T10:01:38;101980.0;;;14.3;46.0
60719;BME280;46567;51.660;5.824;2023-04-27T10:06:52;101980.0;;;14.4;44.0
60719;BME280;46567;51.660;5.824;2023-04-27T10:10:49;101970.0;;;14.1;43.0
60719;BME280;46567;51.660;5.824;2023-04-27T10:15:49;101970.0;;;14.3;44.5
60719;BME280;46567;51.660;5.824;2023-04-27T10:20:49;101980.0;;;14.6;43.5
60719;BME280;46567;51.660;5.824;2023-04-27T10:25:49;101980.0;;;14.6;40.0
60719;BME280;46567;51.660;5.824;2023-04-27T10:30:49;101970.0;;;14.3;39.5
60719;BME280;46567;51.660;5.824;2023-04-27T10:35:53;101970.0;;;14.3;41.0
60719;BME280;46567;51.660;5.824;2023-04-27T10:40:55;101970.0;;;14.3;42.0
60719;BME280;46567;51.660;5.824;2023-04-27T10:45:49;101970.0;;;14.3;42.0
60719;BME280;46567;51.660;5.824;2023-04-27T10:50:49;101980.0;;;14.5;40.0
60719;BME280;46567;51.660;5.824;2023-04-27T10:55:53;101980.0;;;14.4;40.5
60719;BME280;46567;51.660;5.824;2023-04-27T11:00:49;101970.0;;;14.6;40.5
60719;BME280;46567;51.660;5.824;2023-04-27T11:05:58;101950.0;;;14.7;40.5
60719;BME280;46567;51.660;5.824;2023-04-27T11:10:50;101950.0;;;14.7;40.5
60719;BME280;46567;51.660;5.824;2023-04-27T11:15:51;101940.0;;;14.9;39.0
60719;BME280;46567;51.660;5.824;2023-04-27T11:20:51;101930.0;;;15.0;39.5
60719;BME280;46567;51.660;5.824;2023-04-27T11:25:49;101930.0;;;15.0;39.5
60719;BME280;46567;51.660;5.824;2023-04-27T11:30:54;101930.0;;;14.8;37.0
60719;BME280;46567;51.660;5.824;2023-04-27T11:35:49;101920.0;;;14.8;38.5
60719;BME280;46567;51.660;5.824;2023-04-27T11:40:58;101920.0;;;14.8;38.0
60719;BME280;46567;51.660;5.824;2023-04-27T11:45:49;101910.0;;;15.1;37.5
60719;BME280;46567;51.660;5.824;2023-04-27T11:50:49;101910.0;;;15.0;38.5
60719;BME280;46567;51.660;5.824;2023-04-27T11:55:51;101900.0;;;15.0;38.0
60719;BME280;46567;51.660;5.824;2023-04-27T12:00:49;101900.0;;;15.1;38.5
60719;BME280;46567;51.660;5.824;2023-04-27T12:05:50;101910.0;;;15.2;38.0
60719;BME280;46567;51.660;5.824;2023-04-27T12:10:49;101900.0;;;15.2;37.5
60719;BME280;46567;51.660;5.824;2023-04-27T12:15:49;101900.0;;;15.1;37.0
60719;BME280;46567;51.660;5.824;2023-04-27T12:20:49;101890.0;;;15.3;38.0
60719;BME280;46567;51.660;5.824;2023-04-27T12:25:49;101890.0;;;15.6;38.0
60719;BME280;46567;51.660;5.824;2023-04-27T12:30:49;101880.0;;;15.5;37.5
60719;BME280;46567;51.660;5.824;2023-04-27T12:35:49;101880.0;;;15.5;36.5
60719;BME280;46567;51.660;5.824;2023-04-27T12:40:49;101880.0;;;15.5;36.0
60719;BME280;46567;51.660;5.824;2023-04-27T12:50:49;101870.0;;;15.8;36.0
60719;BME280;46567;51.660;5.824;2023-04-27T12:55:49;101870.0;;;16.0;35.0
60719;BME280;46567;51.660;5.824;2023-04-27T13:00:49;101880.0;;;16.3;34.5
60719;BME280;46567;51.660;5.824;2023-04-27T13:05:49;101870.0;;;16.1;33.0
60719;BME280;46567;51.660;5.824;2023-04-27T13:10:49;101860.0;;;16.0;34.0
60719;BME280;46567;51.660;5.824;2023-04-27T13:15:49;101860.0;;;16.2;33.5
60719;BME280;46567;51.660;5.824;2023-04-27T13:20:49;101850.0;;;16.2;35.0
60719;BME280;46567;51.660;5.824;2023-04-27T13:25:49;101850.0;;;16.4;33.5
60719;BME280;46567;51.660;5.824;2023-04-27T13:30:49;101860.0;;;16.5;34.5
60719;BME280;46567;51.660;5.824;2023-04-27T13:35:49;101840.0;;;16.9;33.0
60719;BME280;46567;51.660;5.824;2023-04-27T13:40:49;101830.0;;;16.9;32.5
60719;BME280;46567;51.660;5.824;2023-04-27T13:45:49;101830.0;;;16.9;32.5
60719;BME280;46567;51.660;5.824;2023-04-27T13:50:49;101820.0;;;16.7;33.0
60719;BME280;46567;51.660;5.824;2023-04-27T13:55:49;101820.0;;;16.6;33.0
60719;BME280;46567;51.660;5.824;2023-04-27T14:00:49;101810.0;;;16.6;33.5
60719;BME280;46567;51.660;5.824;2023-04-27T14:05:49;101810.0;;;16.6;33.5
60719;BME280;46567;51.660;5.824;2023-04-27T14:10:49;101800.0;;;16.9;33.0
60719;BME280;46567;51.660;5.824;2023-04-27T14:15:49;101790.0;;;16.9;32.0
60719;BME280;46567;51.660;5.824;2023-04-27T14:20:49;101780.0;;;16.5;32.5
60719;BME280;46567;51.660;5.824;2023-04-27T14:25:49;101790.0;;;16.8;32.5
60719;BME280;46567;51.660;5.824;2023-04-27T14:30:50;101780.0;;;16.9;33.0
60719;BME280;46567;51.660;5.824;2023-04-27T14:35:49;101770.0;;;17.0;33.0
60719;BME280;46567;51.660;5.824;2023-04-27T14:40:49;101760.0;;;16.7;33.5
60719;BME280;46567;51.660;5.824;2023-04-27T14:45:49;101760.0;;;16.9;33.0
60719;BME280;46567;51.660;5.824;2023-04-27T14:50:49;101750.0;;;16.9;34.0
60719;BME280;46567;51.660;5.824;2023-04-27T14:55:49;101740.0;;;16.8;34.0
60719;BME280;46567;51.660;5.824;2023-04-27T15:00:49;101730.0;;;16.7;34.0
60719;BME280;46567;51.660;5.824;2023-04-27T15:05:49;101740.0;;;16.6;33.0
60719;BME280;46567;51.660;5.824;2023-04-27T15:10:49;101750.0;;;16.5;34.0
60719;BME280;46567;51.660;5.824;2023-04-27T15:15:52;101740.0;;;16.3;34.5
60719;BME280;46567;51.660;5.824;2023-04-27T15:20:49;101720.0;;;16.6;34.5
60719;BME280;46567;51.660;5.824;2023-04-27T15:25:50;101730.0;;;16.6;33.0
60719;BME280;46567;51.660;5.824;2023-04-27T15:30:49;101720.0;;;16.3;34.5
60719;BME280;46567;51.660;5.824;2023-04-27T15:35:49;101710.0;;;16.6;34.5
60719;BME280;46567;51.660;5.824;2023-04-27T15:40:49;101720.0;;;16.7;34.5
60719;BME280;46567;51.660;5.824;2023-04-27T15:45:49;101700.0;;;16.7;34.0
60719;BME280;46567;51.660;5.824;2023-04-27T15:50:49;101700.0;;;16.6;33.5
60719;BME280;46567;51.660;5.824;2023-04-27T15:55:49;101700.0;;;16.4;34.5
60719;BME280;46567;51.660;5.824;2023-04-27T16:00:49;101690.0;;;16.3;34.5
60719;BME280;46567;51.660;5.824;2023-04-27T16:05:49;101700.0;;;16.1;35.0
60719;BME280;46567;51.660;5.824;2023-04-27T16:10:49;101690.0;;;15.9;35.0
60719;BME280;46567;51.660;5.824;2023-04-27T16:15:49;101680.0;;;15.8;36.0
60719;BME280;46567;51.660;5.824;2023-04-27T16:20:49;101680.0;;;15.6;35.0
60719;BME280;46567;51.660;5.824;2023-04-27T16:25:49;101670.0;;;15.5;36.0
60719;BME280;46567;51.660;5.824;2023-04-27T16:30:49;101660.0;;;15.4;36.0
60719;BME280;46567;51.660;5.824;2023-04-27T16:35:49;101650.0;;;15.4;36.0
60719;BME280;46567;51.660;5.824;2023-04-27T16:40:49;101650.0;;;15.2;37.0
60719;BME280;46567;51.660;5.824;2023-04-27T16:45:49;101640.0;;;15.4;36.5
60719;BME280;46567;51.660;5.824;2023-04-27T16:50:49;101630.0;;;15.4;36.0
60719;BME280;46567;51.660;5.824;2023-04-27T16:55:49;101630.0;;;15.4;35.5
60719;BME280;46567;51.660;5.824;2023-04-27T17:00:49;101610.0;;;15.2;36.0
60719;BME280;46567;51.660;5.824;2023-04-27T17:05:49;101610.0;;;15.1;37.5
60719;BME280;46567;51.660;5.824;2023-04-27T17:10:49;101610.0;;;15.0;37.0
60719;BME280;46567;51.660;5.824;2023-04-27T17:15:49;101610.0;;;15.0;37.5
60719;BME280;46567;51.660;5.824;2023-04-27T17:20:49;101600.0;;;14.9;38.0
60719;BME280;46567;51.660;5.824;2023-04-27T17:25:49;101610.0;;;14.8;38.0
60719;BME280;46567;51.660;5.824;2023-04-27T17:30:49;101600.0;;;14.9;38.5
60719;BME280;46567;51.660;5.824;2023-04-27T17:35:49;101600.0;;;14.9;38.5
60719;BME280;46567;51.660;5.824;2023-04-27T17:40:49;101600.0;;;14.9;38.5
60719;BME280;46567;51.660;5.824;2023-04-27T17:45:49;101600.0;;;14.5;39.5
60719;BME280;46567;51.660;5.824;2023-04-27T17:50:49;101600.0;;;14.2;40.0
60719;BME280;46567;51.660;5.824;2023-04-27T17:55:49;101600.0;;;14.0;40.5
60719;BME280;46567;51.660;5.824;2023-04-27T18:00:49;101590.0;;;13.8;40.5
60719;BME280;46567;51.660;5.824;2023-04-27T18:05:50;101580.0;;;13.6;41.5
60719;BME280;46567;51.660;5.824;2023-04-27T18:10:49;101590.0;;;13.5;42.0
60719;BME280;46567;51.660;5.824;2023-04-27T18:15:49;101580.0;;;13.4;42.5
60719;BME280;46567;51.660;5.824;2023-04-27T18:20:49;101590.0;;;13.3;42.5
60719;BME280;46567;51.660;5.824;2023-04-27T18:25:49;101580.0;;;13.2;43.5
60719;BME280;46567;51.660;5.824;2023-04-27T18:30:49;101580.0;;;13.1;44.0
60719;BME280;46567;51.660;5.824;2023-04-27T18:35:49;101580.0;;;13.0;44.5
60719;BME280;46567;51.660;5.824;2023-04-27T18:40:49;101580.0;;;13.0;45.0
60719;BME280;46567;51.660;5.824;2023-04-27T18:45:49;101590.0;;;12.9;46.0
60719;BME280;46567;51.660;5.824;2023-04-27T18:50:49;101590.0;;;12.8;46.5
60719;BME280;46567;51.660;5.824;2023-04-27T18:55:49;101600.0;;;12.8;46.5
60719;BME280;46567;51.660;5.824;2023-04-27T19:00:49;101580.0;;;12.7;47.0
60719;BME280;46567;51.660;5.824;2023-04-27T19:05:49;101590.0;;;12.6;47.0
60719;BME280;46567;51.660;5.824;2023-04-27T19:10:50;101590.0;;;12.5;47.5
60719;BME280;46567;51.660;5.824;2023-04-27T19:15:50;101590.0;;;12.5;47.5
60719;BME280;46567;51.660;5.824;2023-04-27T19:20:49;101580.0;;;12.4;48.0
60719;BME280;46567;51.660;5.824;2023-04-27T19:25:50;101590.0;;;12.4;48.5
60719;BME280;46567;51.660;5.824;2023-04-27T19:30:50;101600.0;;;12.3;48.5
60719;BME280;46567;51.660;5.824;2023-04-27T19:35:49;101590.0;;;12.2;49.5
60719;BME280;46567;51.660;5.824;2023-04-27T19:40:49;101580.0;;;12.1;49.5
60719;BME280;46567;51.660;5.824;2023-04-27T19:45:49;101590.0;;;12.1;50.0
60719;BME280;46567;51.660;5.824;2023-04-27T19:50:49;101580.0;;;12.0;50.5
60719;BME280;46567;51.660;5.824;2023-04-27T19:55:50;101580.0;;;12.0;51.0
60719;BME280;46567;51.660;5.824;2023-04-27T20:00:49;101570.0;;;11.9;51.0
60719;BME280;46567;51.660;5.824;2023-04-27T20:05:49;101570.0;;;11.8;51.0
60719;BME280;46567;51.660;5.824;2023-04-27T20:10:49;101560.0;;;11.8;50.5
60719;BME280;46567;51.660;5.824;2023-04-27T20:15:49;101550.0;;;11.8;50.5
60719;BME280;46567;51.660;5.824;2023-04-27T20:20:49;101550.0;;;11.8;50.5
60719;BME280;46567;51.660;5.824;2023-04-27T20:25:49;101550.0;;;11.8;50.5
60719;BME280;46567;51.660;5.824;2023-04-27T20:30:49;101540.0;;;11.8;50.5
60719;BME280;46567;51.660;5.824;2023-04-27T20:35:49;101540.0;;;11.8;50.0
60719;BME280;46567;51.660;5.824;2023-04-27T20:40:51;101530.0;;;11.8;50.0
60719;BME280;46567;51.660;5.824;2023-04-27T20:45:49;101530.0;;;11.8;50.0
60719;BME280;46567;51.660;5.824;2023-04-27T20:50:49;101530.0;;;11.8;50.0
60719;BME280;46567;51.660;5.824;2023-04-27T20:55:49;101520.0;;;11.8;50.5
60719;BME280;46567;51.660;5.824;2023-04-27T21:00:49;101500.0;;;11.7;50.5
60719;BME280;46567;51.660;5.824;2023-04-27T21:05:49;101490.0;;;11.8;50.5
60719;BME280;46567;51.660;5.824;2023-04-27T21:10:49;101490.0;;;11.7;51.5
60719;BME280;46567;51.660;5.824;2023-04-27T21:20:49;101480.0;;;11.5;51.5
60719;BME280;46567;51.660;5.824;2023-04-27T21:25:49;101470.0;;;11.4;51.5
60719;BME280;46567;51.660;5.824;2023-04-27T21:30:49;101460.0;;;11.4;51.5
60719;BME280;46567;51.660;5.824;2023-04-27T21:35:49;101440.0;;;11.3;52.0
60719;BME280;46567;51.660;5.824;2023-04-27T21:40:50;101440.0;;;11.3;52.5
60719;BME280;46567;51.660;5.824;2023-04-27T21:45:49;101430.0;;;11.2;52.5
60719;BME280;46567;51.660;5.824;2023-04-27T21:50:49;101420.0;;;11.2;52.5
60719;BME280;46567;51.660;5.824;2023-04-27T21:55:49;101410.0;;;11.3;52.0
60719;BME280;46567;51.660;5.824;2023-04-27T22:00:49;101410.0;;;11.3;52.5
60719;BME280;46567;51.660;5.824;2023-04-27T22:05:49;101400.0;;;11.4;52.0
60719;BME280;46567;51.660;5.824;2023-04-27T22:10:49;101390.0;;;11.4;51.5
60719;BME280;46567;51.660;5.824;2023-04-27T22:15:49;101390.0;;;11.3;52.0
60719;BME280;46567;51.660;5.824;2023-04-27T22:20:49;101390.0;;;11.3;52.5
60719;BME280;46567;51.660;5.824;2023-04-27T22:25:49;101400.0;;;11.2;52.5
60719;BME280;46567;51.660;5.824;2023-04-27T22:30:49;101400.0;;;11.3;52.5
60719;BME280;46567;51.660;5.824;2023-04-27T22:35:49;101390.0;;;11.2;53.0
60719;BME280;46567;51.660;5.824;2023-04-27T22:40:49;101390.0;;;11.2;54.0
60719;BME280;46567;51.660;5.824;2023-04-27T22:45:49;101370.0;;;11.2;53.5
60719;BME280;46567;51.660;5.824;2023-04-27T22:50:49;101370.0;;;11.2;54.0
60719;BME280;46567;51.660;5.824;2023-04-27T22:55:49;101370.0;;;11.3;54.0
60719;BME280;46567;51.660;5.824;2023-04-27T23:00:49;101360.0;;;11.4;54.0
60719;BME280;46567;51.660;5.824;2023-04-27T23:05:49;101350.0;;;11.4;54.5
60719;BME280;46567;51.660;5.824;2023-04-27T23:10:50;101360.0;;;11.3;55.0
60719;BME280;46567;51.660;5.824;2023-04-27T23:15:49;101340.0;;;11.3;55.5
60719;BME280;46567;51.660;5.824;2023-04-27T23:20:51;101340.0;;;11.3;55.5
60719;BME280;46567;51.660;5.824;2023-04-27T23:25:49;101330.0;;;11.3;56.0
60719;BME280;46567;51.660;5.824;2023-04-27T23:30:51;101330.0;;;11.3;56.0
60719;BME280;46567;51.660;5.824;2023-04-27T23:35:49;101320.0;;;11.3;56.5
60719;BME280;46567;51.660;5.824;2023-04-27T23:40:49;101310.0;;;11.3;56.5
60719;BME280;46567;51.660;5.824;2023-04-27T23:45:50;101310.0;;;11.3;57.0
60719;BME280;46567;51.660;5.824;2023-04-27T23:50:56;101290.0;;;11.2;58.0
60719;BME280;46567;51.660;5.824;2023-04-27T23:55:49;101290.0;;;11.1;59.0
